El Redomon, Argentina
Current Conditions -  °F | °C
As of 6:00 PM on Friday 31 Oct 2014 (Local Time) from SBUG Reporting Station
Scattered Clouds Scattered Clouds  
Wind Chill: 73°   Ceiling: Unl
Heat Index: 73°   Visibility: 6mi
Dew Point: 68°   Wind: 9mph
Humidity: 83%   Direction: 110°ESE
Pressure: 29.85"   Gusts: NA
Location:  31.14°S, 58.23°W
Report Text: SBUG 312100Z 11008KT 9999 SCT020 SCT030 23/20 Q1011
Loading
Personal Weather Stations






























Interactive Weather Map
Tropical Storm Tracking
New forecast layout! Learn more

10-Day Weather Forecast

Advertisements
Track Severe Weather on mobile